GEC8264 SBKP-SUMU
Flight info
| Callsign | GEC8264 |
|---|---|
| Flight time | 2h 9m |
| Altitude | 34000 |
| Route | SOVSI UZ85 RAXIT DCT NOBEL UM792 TELAK |
| Aircraft | B77L/H-SDE1E2E3FGHIJ2J3J4J5M1RWXY/LB1D1 |
Departure
| Time | 2026-05-04 10:39 |
|---|---|
| Airport | Viracopos International Airport (SBKP) |
Arrival
| Time | 2026-05-04 12:49 |
|---|---|
| Airport | Carrasco General Cesáreo L. Berisso International Airport (SUMU) |
| Time | Latitude | Longitude | Altitude | Speed | Heading |
|---|---|---|---|---|---|
| 2026-05-04 10:25 | -23.00464 | -47.14480 | 2162 ft | 0 kts | 218° |
| 2026-05-04 10:33 | -23.00462 | -47.14478 | 2162 ft | 3 kts | 218° |
| 2026-05-04 10:33 | -23.00448 | -47.14466 | 2153 ft | 3 kts | 218° |
| 2026-05-04 10:33 | -23.00433 | -47.14453 | 2153 ft | 3 kts | 218° |
| 2026-05-04 10:34 | -23.00419 | -47.14438 | 2153 ft | 3 kts | 250° |
| 2026-05-04 10:34 | -23.00416 | -47.14424 | 2153 ft | 3 kts | 279° |
| 2026-05-04 10:34 | -23.00421 | -47.14408 | 2153 ft | 0 kts | 308° |
| 2026-05-04 10:36 | -23.00405 | -47.14424 | 2153 ft | 11 kts | 320° |
| 2026-05-04 10:36 | -23.00332 | -47.14497 | 2157 ft | 15 kts | 310° |
| 2026-05-04 10:36 | -23.00269 | -47.14584 | 2155 ft | 15 kts | 308° |
| 2026-05-04 10:37 | -23.00206 | -47.14671 | 2154 ft | 15 kts | 307° |
| 2026-05-04 10:37 | -23.00143 | -47.14758 | 2155 ft | 15 kts | 309° |
| 2026-05-04 10:37 | -23.00055 | -47.14803 | 2154 ft | 15 kts | 359° |
| 2026-05-04 10:37 | -22.99955 | -47.14783 | 2159 ft | 15 kts | 24° |
| 2026-05-04 10:39 | -23.01498 | -47.12358 | 2337 ft | 183 kts | 127° |
| 2026-05-04 10:39 | -23.02279 | -47.11265 | 2925 ft | 184 kts | 127° |
| 2026-05-04 10:39 | -23.03183 | -47.10296 | 3505 ft | 188 kts | 153° |
| 2026-05-04 10:40 | -23.04510 | -47.10178 | 3797 ft | 204 kts | 199° |
| 2026-05-04 10:40 | -23.05715 | -47.11075 | 3948 ft | 218 kts | 220° |
| 2026-05-04 10:40 | -23.07041 | -47.12018 | 4131 ft | 239 kts | 206° |
| 2026-05-04 10:40 | -23.08633 | -47.12786 | 4331 ft | 263 kts | 201° |
| 2026-05-04 10:41 | -23.10403 | -47.13492 | 4761 ft | 274 kts | 204° |
| 2026-05-04 10:41 | -23.11976 | -47.14662 | 5261 ft | 277 kts | 226° |
| 2026-05-04 10:41 | -23.13377 | -47.16123 | 6051 ft | 281 kts | 224° |
| 2026-05-04 10:41 | -23.14840 | -47.17526 | 7043 ft | 279 kts | 223° |
| 2026-05-04 10:42 | -23.16304 | -47.18906 | 7936 ft | 279 kts | 222° |
| 2026-05-04 10:42 | -23.17774 | -47.20292 | 8819 ft | 280 kts | 222° |
| 2026-05-04 10:42 | -23.19247 | -47.21683 | 9708 ft | 281 kts | 221° |
| 2026-05-04 10:42 | -23.20865 | -47.22861 | 10392 ft | 285 kts | 201° |
| 2026-05-04 10:43 | -23.22829 | -47.23407 | 10728 ft | 302 kts | 194° |
| 2026-05-04 10:44 | -23.39907 | -47.27973 | 14715 ft | 384 kts | 197° |
| 2026-05-04 10:45 | -23.42523 | -47.28682 | 15373 ft | 390 kts | 197° |
| 2026-05-04 10:45 | -23.45172 | -47.29402 | 16036 ft | 395 kts | 197° |
| 2026-05-04 10:45 | -23.47858 | -47.30130 | 16713 ft | 400 kts | 198° |
| 2026-05-04 10:45 | -23.50570 | -47.30867 | 17221 ft | 403 kts | 198° |
| 2026-05-04 10:46 | -23.53301 | -47.31608 | 17195 ft | 405 kts | 198° |
| 2026-05-04 10:46 | -23.56051 | -47.32354 | 17536 ft | 409 kts | 198° |
| 2026-05-04 10:46 | -23.58825 | -47.33110 | 18237 ft | 412 kts | 199° |
| 2026-05-04 10:46 | -23.61617 | -47.33870 | 18872 ft | 415 kts | 199° |
| 2026-05-04 10:47 | -23.64394 | -47.34622 | 19479 ft | 417 kts | 199° |
| 2026-05-04 10:47 | -23.67218 | -47.35388 | 20094 ft | 420 kts | 199° |
| 2026-05-04 10:47 | -23.70067 | -47.36163 | 20670 ft | 423 kts | 199° |
| 2026-05-04 10:47 | -23.72932 | -47.36942 | 21287 ft | 426 kts | 199° |
| 2026-05-04 10:49 | -23.93534 | -47.42562 | 25150 ft | 444 kts | 199° |
| 2026-05-04 10:49 | -23.96540 | -47.43381 | 25656 ft | 446 kts | 199° |
| 2026-05-04 10:50 | -23.99560 | -47.44207 | 26120 ft | 449 kts | 199° |
| 2026-05-04 10:51 | -24.19516 | -47.53357 | 29277 ft | 449 kts | 218° |
| 2026-05-04 10:52 | -24.22141 | -47.55232 | 29678 ft | 452 kts | 218° |
| 2026-05-04 10:52 | -24.24762 | -47.57072 | 30063 ft | 454 kts | 217° |
| 2026-05-04 10:52 | -24.27429 | -47.58925 | 30481 ft | 454 kts | 217° |
| 2026-05-04 10:54 | -24.45389 | -47.72143 | 33616 ft | 434 kts | 225° |
| 2026-05-04 10:54 | -24.47658 | -47.74320 | 33980 ft | 433 kts | 225° |
| 2026-05-04 10:56 | -24.63614 | -47.89516 | 34190 ft | 430 kts | 225° |
| 2026-05-04 10:56 | -24.65870 | -47.91663 | 34190 ft | 429 kts | 225° |
| 2026-05-04 10:57 | -24.70389 | -47.95968 | 34202 ft | 430 kts | 225° |
| 2026-05-04 10:57 | -24.74912 | -48.00281 | 34215 ft | 431 kts | 225° |
| 2026-05-04 10:58 | -24.79445 | -48.04610 | 34206 ft | 431 kts | 224° |
| 2026-05-04 10:58 | -24.83950 | -48.08913 | 34207 ft | 431 kts | 225° |
| 2026-05-04 10:59 | -24.88481 | -48.13244 | 34194 ft | 431 kts | 225° |
| 2026-05-04 10:59 | -24.92999 | -48.17569 | 34194 ft | 430 kts | 225° |
| 2026-05-04 11:00 | -24.97513 | -48.21894 | 34206 ft | 430 kts | 224° |
| 2026-05-04 11:02 | -25.15518 | -48.39193 | 34206 ft | 428 kts | 224° |
| 2026-05-04 11:05 | -25.49103 | -48.71646 | 34226 ft | 428 kts | 224° |
| 2026-05-04 11:06 | -25.53584 | -48.75995 | 34223 ft | 428 kts | 224° |
| 2026-05-04 11:06 | -25.58065 | -48.80349 | 34210 ft | 428 kts | 224° |
| 2026-05-04 11:10 | -25.89447 | -49.10965 | 34213 ft | 429 kts | 224° |
| 2026-05-04 11:12 | -26.07267 | -49.28454 | 34213 ft | 432 kts | 224° |
| 2026-05-04 11:12 | -26.11771 | -49.32884 | 34211 ft | 432 kts | 224° |
| 2026-05-04 11:13 | -26.16268 | -49.37312 | 34225 ft | 432 kts | 224° |
| 2026-05-04 11:13 | -26.20771 | -49.41751 | 34213 ft | 432 kts | 224° |
| 2026-05-04 11:14 | -26.25262 | -49.46184 | 34218 ft | 431 kts | 224° |
| 2026-05-04 11:16 | -26.43174 | -49.63912 | 34221 ft | 430 kts | 224° |
| 2026-05-04 11:16 | -26.47646 | -49.68349 | 34221 ft | 430 kts | 224° |
| 2026-05-04 11:17 | -26.52123 | -49.72798 | 34225 ft | 431 kts | 224° |
| 2026-05-04 11:19 | -26.70045 | -49.90651 | 34219 ft | 432 kts | 224° |
| 2026-05-04 11:19 | -26.74531 | -49.95131 | 34219 ft | 432 kts | 224° |
| 2026-05-04 11:20 | -26.79014 | -49.99616 | 34212 ft | 432 kts | 224° |
| 2026-05-04 11:20 | -26.83492 | -50.04098 | 34225 ft | 432 kts | 224° |
| 2026-05-04 11:22 | -27.00625 | -50.21296 | 34220 ft | 433 kts | 225° |
| 2026-05-04 11:23 | -27.05108 | -50.25808 | 34215 ft | 433 kts | 225° |
| 2026-05-04 11:25 | -27.20785 | -50.41626 | 34221 ft | 432 kts | 225° |
| 2026-05-04 11:25 | -27.25253 | -50.46146 | 34199 ft | 432 kts | 225° |
| 2026-05-04 11:27 | -27.45226 | -50.66413 | 34195 ft | 430 kts | 225° |
| 2026-05-04 11:28 | -27.49669 | -50.70935 | 34191 ft | 430 kts | 225° |
| 2026-05-04 11:28 | -27.54111 | -50.75463 | 34198 ft | 431 kts | 225° |
| 2026-05-04 11:29 | -27.58558 | -50.80000 | 34187 ft | 431 kts | 225° |
| 2026-05-04 11:29 | -27.63004 | -50.84540 | 34188 ft | 431 kts | 225° |
| 2026-05-04 11:33 | -27.94119 | -51.16468 | 34166 ft | 433 kts | 225° |
| 2026-05-04 11:33 | -27.98566 | -51.21050 | 34166 ft | 432 kts | 225° |
| 2026-05-04 11:34 | -28.03218 | -51.25378 | 34175 ft | 435 kts | 217° |
| 2026-05-04 11:34 | -28.08464 | -51.28860 | 34160 ft | 438 kts | 213° |
| 2026-05-04 11:35 | -28.13759 | -51.32259 | 34167 ft | 437 kts | 213° |
| 2026-05-04 11:35 | -28.19010 | -51.35658 | 34159 ft | 437 kts | 213° |
| 2026-05-04 11:36 | -28.24289 | -51.39089 | 34166 ft | 437 kts | 213° |
| 2026-05-04 11:36 | -28.29566 | -51.42524 | 34161 ft | 437 kts | 213° |
| 2026-05-04 11:37 | -28.34842 | -51.45962 | 34152 ft | 437 kts | 213° |
| 2026-05-04 11:37 | -28.40116 | -51.49402 | 34155 ft | 437 kts | 213° |
| 2026-05-04 11:38 | -28.45388 | -51.52846 | 34147 ft | 437 kts | 213° |
| 2026-05-04 11:38 | -28.50661 | -51.56293 | 34173 ft | 437 kts | 213° |
| 2026-05-04 11:39 | -28.55936 | -51.59747 | 34150 ft | 438 kts | 213° |
| 2026-05-04 11:41 | -28.74426 | -51.71882 | 34131 ft | 439 kts | 213° |
| 2026-05-04 11:41 | -28.79717 | -51.75364 | 34131 ft | 439 kts | 213° |
| 2026-05-04 11:42 | -28.85002 | -51.78847 | 34140 ft | 439 kts | 213° |
| 2026-05-04 11:42 | -28.90285 | -51.82332 | 34126 ft | 439 kts | 213° |
| 2026-05-04 11:43 | -28.95536 | -51.85798 | 34128 ft | 439 kts | 213° |
| 2026-05-04 11:43 | -29.00816 | -51.89287 | 34116 ft | 439 kts | 213° |
| 2026-05-04 11:44 | -29.06094 | -51.92782 | 34104 ft | 437 kts | 213° |
| 2026-05-04 11:44 | -29.11351 | -51.96268 | 34132 ft | 438 kts | 213° |
| 2026-05-04 11:45 | -29.16626 | -51.99767 | 34106 ft | 439 kts | 213° |
| 2026-05-04 11:45 | -29.21908 | -52.03278 | 34114 ft | 439 kts | 213° |
| 2026-05-04 11:46 | -29.27201 | -52.06799 | 34122 ft | 440 kts | 213° |
| 2026-05-04 11:46 | -29.32507 | -52.10330 | 34109 ft | 442 kts | 213° |
| 2026-05-04 11:47 | -29.37811 | -52.13871 | 34105 ft | 441 kts | 213° |
| 2026-05-04 11:47 | -29.43118 | -52.17413 | 34098 ft | 441 kts | 213° |
| 2026-05-04 11:48 | -29.48415 | -52.20952 | 34114 ft | 440 kts | 213° |
| 2026-05-04 11:48 | -29.53699 | -52.24488 | 34094 ft | 439 kts | 213° |
| 2026-05-04 11:49 | -29.58974 | -52.28023 | 34094 ft | 439 kts | 213° |
| 2026-05-04 11:49 | -29.64246 | -52.31560 | 34110 ft | 438 kts | 213° |
| 2026-05-04 11:50 | -29.69511 | -52.35097 | 34132 ft | 438 kts | 214° |
| 2026-05-04 11:50 | -29.74767 | -52.38631 | 34112 ft | 437 kts | 214° |
| 2026-05-04 11:51 | -29.80008 | -52.42159 | 34102 ft | 436 kts | 214° |
| 2026-05-04 11:51 | -29.85239 | -52.45686 | 34101 ft | 435 kts | 214° |
| 2026-05-04 11:52 | -29.90456 | -52.49207 | 34099 ft | 434 kts | 214° |
| 2026-05-04 11:52 | -29.95667 | -52.52729 | 34106 ft | 434 kts | 214° |
| 2026-05-04 11:53 | -30.00872 | -52.56251 | 34123 ft | 434 kts | 214° |
| 2026-05-04 11:53 | -30.06079 | -52.59780 | 34105 ft | 434 kts | 214° |
| 2026-05-04 11:55 | -30.26924 | -52.73946 | 34102 ft | 435 kts | 214° |
| 2026-05-04 11:56 | -30.32142 | -52.77503 | 34100 ft | 436 kts | 215° |
| 2026-05-04 11:56 | -30.37366 | -52.81069 | 34108 ft | 436 kts | 215° |
| 2026-05-04 11:57 | -30.42592 | -52.84639 | 34105 ft | 436 kts | 215° |
| 2026-05-04 11:57 | -30.47818 | -52.88216 | 34104 ft | 436 kts | 215° |
| 2026-05-04 11:58 | -30.53005 | -52.91770 | 34100 ft | 436 kts | 215° |
| 2026-05-04 11:58 | -30.58222 | -52.95348 | 34109 ft | 435 kts | 215° |
| 2026-05-04 11:59 | -30.63439 | -52.98932 | 34103 ft | 436 kts | 215° |
| 2026-05-04 11:59 | -30.68652 | -53.02517 | 34105 ft | 436 kts | 215° |
| 2026-05-04 12:00 | -30.73868 | -53.06109 | 34110 ft | 435 kts | 215° |
| 2026-05-04 12:00 | -30.79077 | -53.09701 | 34120 ft | 436 kts | 215° |
| 2026-05-04 12:01 | -30.84291 | -53.13301 | 34111 ft | 436 kts | 215° |
| 2026-05-04 12:02 | -31.02534 | -53.25931 | 34115 ft | 436 kts | 216° |
| 2026-05-04 12:03 | -31.07750 | -53.29553 | 34114 ft | 436 kts | 216° |
| 2026-05-04 12:03 | -31.12968 | -53.33180 | 34115 ft | 437 kts | 216° |
| 2026-05-04 12:04 | -31.18198 | -53.36821 | 34103 ft | 438 kts | 216° |
| 2026-05-04 12:04 | -31.23431 | -53.40470 | 34105 ft | 438 kts | 216° |
| 2026-05-04 12:05 | -31.28670 | -53.44126 | 34101 ft | 439 kts | 216° |
| 2026-05-04 12:05 | -31.33913 | -53.47792 | 34091 ft | 439 kts | 216° |
| 2026-05-04 12:06 | -31.39151 | -53.51456 | 34109 ft | 438 kts | 216° |
| 2026-05-04 12:06 | -31.44384 | -53.55122 | 34112 ft | 438 kts | 216° |
| 2026-05-04 12:07 | -31.49620 | -53.58797 | 34098 ft | 439 kts | 216° |
| 2026-05-04 12:07 | -31.54852 | -53.62473 | 34095 ft | 438 kts | 216° |
| 2026-05-04 12:08 | -31.60032 | -53.66112 | 34084 ft | 428 kts | 216° |
| 2026-05-04 12:08 | -31.65067 | -53.69658 | 34082 ft | 423 kts | 216° |
| 2026-05-04 12:09 | -31.70076 | -53.73193 | 34084 ft | 418 kts | 216° |
| 2026-05-04 12:09 | -31.75043 | -53.76703 | 34104 ft | 415 kts | 217° |
| 2026-05-04 12:10 | -31.80006 | -53.80216 | 34109 ft | 422 kts | 217° |
| 2026-05-04 12:10 | -31.85118 | -53.83843 | 34110 ft | 435 kts | 217° |
| 2026-05-04 12:11 | -31.89472 | -53.86926 | 34098 ft | 442 kts | 216° |
| 2026-05-04 12:11 | -31.94739 | -53.90660 | 34091 ft | 442 kts | 216° |
| 2026-05-04 12:12 | -31.99930 | -53.94524 | 34088 ft | 439 kts | 219° |
| 2026-05-04 12:12 | -32.04952 | -53.98601 | 34098 ft | 438 kts | 220° |
| 2026-05-04 12:14 | -32.25061 | -54.14567 | 34052 ft | 434 kts | 219° |
| 2026-05-04 12:15 | -32.30090 | -54.18511 | 34047 ft | 434 kts | 219° |
| 2026-05-04 12:15 | -32.35112 | -54.22461 | 34092 ft | 434 kts | 219° |
| 2026-05-04 12:16 | -32.40136 | -54.26420 | 34094 ft | 434 kts | 219° |
| 2026-05-04 12:16 | -32.45157 | -54.30384 | 34089 ft | 434 kts | 219° |
| 2026-05-04 12:17 | -32.50145 | -54.34325 | 34089 ft | 434 kts | 219° |
| 2026-05-04 12:17 | -32.55163 | -54.38295 | 34089 ft | 434 kts | 219° |
| 2026-05-04 12:18 | -32.60183 | -54.42273 | 34092 ft | 434 kts | 219° |
| 2026-05-04 12:18 | -32.65203 | -54.46257 | 34093 ft | 434 kts | 219° |
| 2026-05-04 12:19 | -32.70224 | -54.50247 | 34093 ft | 434 kts | 219° |
| 2026-05-04 12:19 | -32.75243 | -54.54240 | 34078 ft | 434 kts | 219° |
| 2026-05-04 12:20 | -32.80262 | -54.58236 | 34079 ft | 434 kts | 219° |
| 2026-05-04 12:20 | -32.85272 | -54.62234 | 34066 ft | 433 kts | 219° |
| 2026-05-04 12:21 | -32.90276 | -54.66232 | 34080 ft | 433 kts | 219° |
| 2026-05-04 12:21 | -32.95278 | -54.70235 | 34067 ft | 433 kts | 219° |
| 2026-05-04 12:22 | -33.00244 | -54.74212 | 34077 ft | 433 kts | 219° |
| 2026-05-04 12:22 | -33.05240 | -54.78220 | 34075 ft | 433 kts | 219° |
| 2026-05-04 12:23 | -33.10240 | -54.82238 | 34066 ft | 433 kts | 220° |
| 2026-05-04 12:23 | -33.15236 | -54.86258 | 34067 ft | 433 kts | 220° |
| 2026-05-04 12:24 | -33.20235 | -54.90285 | 34064 ft | 434 kts | 220° |
| 2026-05-04 12:24 | -33.25237 | -54.94321 | 34070 ft | 434 kts | 220° |
| 2026-05-04 12:25 | -33.30242 | -54.98363 | 34061 ft | 434 kts | 220° |
| 2026-05-04 12:25 | -33.35236 | -55.02403 | 34068 ft | 433 kts | 220° |
| 2026-05-04 12:26 | -33.40223 | -55.06443 | 34063 ft | 433 kts | 220° |
| 2026-05-04 12:26 | -33.45212 | -55.10491 | 34057 ft | 433 kts | 220° |
| 2026-05-04 12:27 | -33.50224 | -55.14568 | 33227 ft | 445 kts | 220° |
| 2026-05-04 12:27 | -33.52782 | -55.16651 | 32540 ft | 443 kts | 220° |
| 2026-05-04 12:27 | -33.55318 | -55.18711 | 31942 ft | 438 kts | 219° |
| 2026-05-04 12:28 | -33.57825 | -55.20748 | 31331 ft | 433 kts | 219° |
| 2026-05-04 12:28 | -33.60303 | -55.22764 | 30754 ft | 429 kts | 219° |
| 2026-05-04 12:28 | -33.62761 | -55.24766 | 30188 ft | 425 kts | 219° |
| 2026-05-04 12:28 | -33.65199 | -55.26756 | 29536 ft | 422 kts | 220° |
| 2026-05-04 12:29 | -33.67614 | -55.28728 | 28917 ft | 418 kts | 219° |
| 2026-05-04 12:29 | -33.70006 | -55.30684 | 28340 ft | 414 kts | 220° |
| 2026-05-04 12:29 | -33.72379 | -55.32624 | 27758 ft | 411 kts | 220° |
| 2026-05-04 12:29 | -33.74731 | -55.34550 | 27212 ft | 407 kts | 220° |
| 2026-05-04 12:30 | -33.77063 | -55.36460 | 26664 ft | 404 kts | 220° |
| 2026-05-04 12:30 | -33.79376 | -55.38355 | 26144 ft | 401 kts | 220° |
| 2026-05-04 12:30 | -33.81673 | -55.40239 | 25614 ft | 398 kts | 220° |
| 2026-05-04 12:30 | -33.83921 | -55.42086 | 25097 ft | 396 kts | 220° |
| 2026-05-04 12:31 | -33.86190 | -55.43949 | 24577 ft | 394 kts | 220° |
| 2026-05-04 12:31 | -33.88479 | -55.45832 | 24036 ft | 393 kts | 219° |
| 2026-05-04 12:31 | -33.90699 | -55.47658 | 23518 ft | 391 kts | 219° |
| 2026-05-04 12:31 | -33.92942 | -55.49505 | 22912 ft | 389 kts | 219° |
| 2026-05-04 12:32 | -33.95168 | -55.51335 | 22396 ft | 386 kts | 220° |
| 2026-05-04 12:32 | -33.99573 | -55.54964 | 21386 ft | 381 kts | 220° |
| 2026-05-04 12:32 | -34.01750 | -55.56760 | 20903 ft | 378 kts | 220° |
| 2026-05-04 12:33 | -34.03912 | -55.58545 | 20424 ft | 375 kts | 220° |
| 2026-05-04 12:33 | -34.06062 | -55.60321 | 19942 ft | 374 kts | 220° |
| 2026-05-04 12:33 | -34.08201 | -55.62089 | 19467 ft | 372 kts | 220° |
| 2026-05-04 12:33 | -34.10329 | -55.63849 | 19010 ft | 371 kts | 220° |
| 2026-05-04 12:34 | -34.12453 | -55.65608 | 18520 ft | 370 kts | 220° |
| 2026-05-04 12:34 | -34.14574 | -55.67364 | 18004 ft | 369 kts | 220° |
| 2026-05-04 12:34 | -34.16684 | -55.69114 | 17493 ft | 368 kts | 220° |
| 2026-05-04 12:34 | -34.18787 | -55.70858 | 17001 ft | 366 kts | 220° |
| 2026-05-04 12:35 | -34.20881 | -55.72594 | 16537 ft | 364 kts | 220° |
| 2026-05-04 12:35 | -34.22963 | -55.74322 | 16070 ft | 362 kts | 219° |
| 2026-05-04 12:35 | -34.25037 | -55.76045 | 15607 ft | 361 kts | 219° |
| 2026-05-04 12:35 | -34.27106 | -55.77765 | 15154 ft | 361 kts | 219° |
| 2026-05-04 12:36 | -34.29171 | -55.79483 | 14688 ft | 360 kts | 219° |
| 2026-05-04 12:36 | -34.31233 | -55.81200 | 14227 ft | 360 kts | 219° |
| 2026-05-04 12:36 | -34.33291 | -55.82913 | 13763 ft | 360 kts | 219° |
| 2026-05-04 12:36 | -34.35352 | -55.84631 | 13264 ft | 359 kts | 219° |
| 2026-05-04 12:37 | -34.37406 | -55.86343 | 12801 ft | 358 kts | 218° |
| 2026-05-04 12:37 | -34.39456 | -55.88052 | 12356 ft | 357 kts | 218° |
| 2026-05-04 12:37 | -34.41501 | -55.89758 | 11901 ft | 356 kts | 218° |
| 2026-05-04 12:37 | -34.43539 | -55.91460 | 11455 ft | 355 kts | 218° |
| 2026-05-04 12:38 | -34.45569 | -55.93157 | 11020 ft | 354 kts | 218° |
| 2026-05-04 12:38 | -34.47581 | -55.94837 | 10823 ft | 347 kts | 218° |
| 2026-05-04 12:38 | -34.49543 | -55.96476 | 10658 ft | 338 kts | 218° |
| 2026-05-04 12:38 | -34.51457 | -55.98076 | 10504 ft | 330 kts | 218° |
| 2026-05-04 12:39 | -34.53320 | -55.99635 | 10366 ft | 322 kts | 218° |
| 2026-05-04 12:39 | -34.55140 | -56.01160 | 10230 ft | 314 kts | 218° |
| 2026-05-04 12:39 | -34.56913 | -56.02646 | 10100 ft | 306 kts | 218° |
| 2026-05-04 12:39 | -34.58647 | -56.04102 | 9898 ft | 301 kts | 218° |
| 2026-05-04 12:40 | -34.60340 | -56.05522 | 9685 ft | 287 kts | 219° |
| 2026-05-04 12:40 | -34.61945 | -56.06867 | 9205 ft | 274 kts | 219° |
| 2026-05-04 12:40 | -34.63477 | -56.08153 | 8876 ft | 264 kts | 219° |
| 2026-05-04 12:40 | -34.64985 | -56.09422 | 8559 ft | 263 kts | 219° |
| 2026-05-04 12:41 | -34.66486 | -56.10689 | 8240 ft | 263 kts | 219° |
| 2026-05-04 12:41 | -34.67985 | -56.11953 | 7936 ft | 262 kts | 219° |
| 2026-05-04 12:41 | -34.69477 | -56.13210 | 7617 ft | 261 kts | 219° |
| 2026-05-04 12:41 | -34.70969 | -56.14467 | 7311 ft | 261 kts | 219° |
| 2026-05-04 12:42 | -34.72459 | -56.15723 | 6995 ft | 260 kts | 219° |
| 2026-05-04 12:42 | -34.73945 | -56.16976 | 6678 ft | 260 kts | 219° |
| 2026-05-04 12:42 | -34.75433 | -56.18231 | 6361 ft | 260 kts | 219° |
| 2026-05-04 12:42 | -34.76903 | -56.19472 | 6043 ft | 261 kts | 219° |
| 2026-05-04 12:43 | -34.78395 | -56.20731 | 5722 ft | 261 kts | 219° |
| 2026-05-04 12:43 | -34.79882 | -56.21985 | 5390 ft | 259 kts | 219° |
| 2026-05-04 12:43 | -34.81354 | -56.23229 | 5096 ft | 256 kts | 219° |
| 2026-05-04 12:43 | -34.82814 | -56.24463 | 4788 ft | 255 kts | 219° |
| 2026-05-04 12:44 | -34.84270 | -56.25675 | 4469 ft | 251 kts | 215° |
| 2026-05-04 12:44 | -34.85942 | -56.26306 | 4152 ft | 260 kts | 183° |
| 2026-05-04 12:44 | -34.87697 | -56.25743 | 4023 ft | 271 kts | 154° |
| 2026-05-04 12:44 | -34.89263 | -56.24413 | 3637 ft | 275 kts | 145° |
| 2026-05-04 12:45 | -34.90745 | -56.23060 | 3468 ft | 255 kts | 146° |
| 2026-05-04 12:45 | -34.92074 | -56.21756 | 3321 ft | 240 kts | 132° |
| 2026-05-04 12:45 | -34.92779 | -56.19995 | 3084 ft | 228 kts | 93° |
| 2026-05-04 12:45 | -34.92659 | -56.18131 | 2912 ft | 217 kts | 70° |
| 2026-05-04 12:46 | -34.92052 | -56.16517 | 2590 ft | 205 kts | 50° |
| 2026-05-04 12:46 | -34.91233 | -56.15139 | 2368 ft | 198 kts | 47° |
| 2026-05-04 12:46 | -34.90430 | -56.13834 | 2105 ft | 186 kts | 46° |
| 2026-05-04 12:46 | -34.89670 | -56.12596 | 1841 ft | 182 kts | 46° |
| 2026-05-04 12:47 | -34.88896 | -56.11350 | 1694 ft | 188 kts | 46° |
| 2026-05-04 12:47 | -34.88131 | -56.10109 | 1449 ft | 177 kts | 46° |
| 2026-05-04 12:47 | -34.87405 | -56.08919 | 1117 ft | 169 kts | 47° |
| 2026-05-04 12:47 | -34.86737 | -56.07827 | 884 ft | 153 kts | 49° |
| 2026-05-04 12:48 | -34.86110 | -56.06801 | 696 ft | 150 kts | 49° |
| 2026-05-04 12:48 | -34.85486 | -56.05777 | 508 ft | 149 kts | 49° |
| 2026-05-04 12:48 | -34.84880 | -56.04785 | 300 ft | 146 kts | 49° |
| 2026-05-04 12:48 | -34.84271 | -56.03791 | 125 ft | 146 kts | 49° |
| 2026-05-04 12:49 | -34.83699 | -56.02866 | 91 ft | 114 kts | 55° |
| 2026-05-04 12:49 | -34.83370 | -56.02312 | 91 ft | 48 kts | 52° |
| 2026-05-04 12:49 | -34.83213 | -56.02050 | 92 ft | 28 kts | 58° |
| 2026-05-04 12:49 | -34.83272 | -56.01919 | 91 ft | 16 kts | 140° |
| 2026-05-04 12:50 | -34.83361 | -56.01835 | 89 ft | 16 kts | 144° |
| 2026-05-04 12:50 | -34.83455 | -56.01767 | 91 ft | 16 kts | 169° |
| 2026-05-04 12:50 | -34.83539 | -56.01842 | 91 ft | 15 kts | 229° |
| 2026-05-04 12:50 | -34.83604 | -56.01945 | 91 ft | 16 kts | 234° |
| 2026-05-04 12:51 | -34.83679 | -56.02068 | 91 ft | 20 kts | 234° |
| 2026-05-04 12:51 | -34.83773 | -56.02214 | 91 ft | 23 kts | 218° |
| 2026-05-04 12:51 | -34.83919 | -56.02247 | 88 ft | 18 kts | 200° |
| 2026-05-04 12:51 | -34.83946 | -56.02394 | 87 ft | 19 kts | 270° |
| 2026-05-04 12:52 | -34.83934 | -56.02534 | 91 ft | 11 kts | 326° |
| 2026-05-04 12:52 | -34.83881 | -56.02539 | 90 ft | 6 kts | 359° |
| 2026-05-04 12:52 | -34.83875 | -56.02540 | 90 ft | 0 kts | 358° |